sensor_id;sensor_type;location;lat;lon;timestamp;temperature;humidity
20345;DHT22;10330;48.816;9.278;2024-01-06T00:00:42;6.20;99.90
20345;DHT22;10330;48.816;9.278;2024-01-06T00:03:09;6.20;99.90
20345;DHT22;10330;48.816;9.278;2024-01-06T00:05:35;6.10;99.90
20345;DHT22;10330;48.816;9.278;2024-01-06T00:08:02;6.10;99.90
20345;DHT22;10330;48.816;9.278;2024-01-06T00:10:28;6.20;99.90
20345;DHT22;10330;48.816;9.278;2024-01-06T00:12:54;6.20;99.90
20345;DHT22;10330;48.816;9.278;2024-01-06T00:15:20;6.10;99.90
20345;DHT22;10330;48.816;9.278;2024-01-06T00:17:47;6.10;99.90
20345;DHT22;10330;48.816;9.278;2024-01-06T00:20:13;6.00;99.90
20345;DHT22;10330;48.816;9.278;2024-01-06T00:22:39;6.10;99.90
20345;DHT22;10330;48.816;9.278;2024-01-06T00:25:07;6.00;99.90
20345;DHT22;10330;48.816;9.278;2024-01-06T00:27:33;6.10;99.90
20345;DHT22;10330;48.816;9.278;2024-01-06T00:29:59;6.10;99.90
20345;DHT22;10330;48.816;9.278;2024-01-06T00:32:25;6.00;99.90
20345;DHT22;10330;48.816;9.278;2024-01-06T00:34:52;6.00;99.90
20345;DHT22;10330;48.816;9.278;2024-01-06T00:37:18;6.00;99.90
20345;DHT22;10330;48.816;9.278;2024-01-06T00:40:15;6.00;99.90
20345;DHT22;10330;48.816;9.278;2024-01-06T00:42:41;6.00;99.90
20345;DHT22;10330;48.816;9.278;2024-01-06T00:45:08;6.00;99.90
20345;DHT22;10330;48.816;9.278;2024-01-06T00:47:34;6.00;99.90
20345;DHT22;10330;48.816;9.278;2024-01-06T00:50:00;6.00;99.90
20345;DHT22;10330;48.816;9.278;2024-01-06T00:52:27;5.90;99.90
20345;DHT22;10330;48.816;9.278;2024-01-06T00:54:55;5.90;99.90
20345;DHT22;10330;48.816;9.278;2024-01-06T00:57:22;5.90;99.90
20345;DHT22;10330;48.816;9.278;2024-01-06T00:59:50;5.90;99.90
20345;DHT22;10330;48.816;9.278;2024-01-06T01:02:17;5.90;99.90
20345;DHT22;10330;48.816;9.278;2024-01-06T01:04:43;5.90;99.90
20345;DHT22;10330;48.816;9.278;2024-01-06T01:07:10;5.90;99.90
20345;DHT22;10330;48.816;9.278;2024-01-06T01:09:36;5.90;99.90
20345;DHT22;10330;48.816;9.278;2024-01-06T01:12:02;6.00;99.90
20345;DHT22;10330;48.816;9.278;2024-01-06T01:14:29;6.00;99.90
20345;DHT22;10330;48.816;9.278;2024-01-06T01:16:56;5.90;99.90
20345;DHT22;10330;48.816;9.278;2024-01-06T01:19:22;5.90;99.90
20345;DHT22;10330;48.816;9.278;2024-01-06T01:21:48;5.90;99.90
20345;DHT22;10330;48.816;9.278;2024-01-06T01:24:15;5.90;99.90
20345;DHT22;10330;48.816;9.278;2024-01-06T01:26:41;5.90;99.90
20345;DHT22;10330;48.816;9.278;2024-01-06T01:29:08;5.90;99.90
20345;DHT22;10330;48.816;9.278;2024-01-06T01:31:35;5.90;99.90
20345;DHT22;10330;48.816;9.278;2024-01-06T01:34:01;5.90;99.90
20345;DHT22;10330;48.816;9.278;2024-01-06T01:36:27;5.90;99.90
20345;DHT22;10330;48.816;9.278;2024-01-06T01:38:54;5.90;99.90
20345;DHT22;10330;48.816;9.278;2024-01-06T01:41:20;5.80;99.90
20345;DHT22;10330;48.816;9.278;2024-01-06T01:43:46;5.80;99.90
20345;DHT22;10330;48.816;9.278;2024-01-06T01:46:12;5.80;99.90
20345;DHT22;10330;48.816;9.278;2024-01-06T01:48:39;5.80;99.90
20345;DHT22;10330;48.816;9.278;2024-01-06T01:51:07;5.80;99.90
20345;DHT22;10330;48.816;9.278;2024-01-06T01:53:38;5.80;99.90
20345;DHT22;10330;48.816;9.278;2024-01-06T01:56:04;5.90;99.90
20345;DHT22;10330;48.816;9.278;2024-01-06T01:58:31;5.80;99.90
20345;DHT22;10330;48.816;9.278;2024-01-06T02:00:58;5.80;99.90
20345;DHT22;10330;48.816;9.278;2024-01-06T02:03:26;5.80;99.90
20345;DHT22;10330;48.816;9.278;2024-01-06T02:05:52;5.80;99.90
20345;DHT22;10330;48.816;9.278;2024-01-06T02:08:19;5.80;99.90
20345;DHT22;10330;48.816;9.278;2024-01-06T02:10:45;5.80;99.90
20345;DHT22;10330;48.816;9.278;2024-01-06T02:13:12;5.80;99.90
20345;DHT22;10330;48.816;9.278;2024-01-06T02:15:39;5.80;99.90
20345;DHT22;10330;48.816;9.278;2024-01-06T02:18:06;5.70;99.90
20345;DHT22;10330;48.816;9.278;2024-01-06T02:20:33;5.70;99.90
20345;DHT22;10330;48.816;9.278;2024-01-06T02:23:00;5.70;99.90
20345;DHT22;10330;48.816;9.278;2024-01-06T02:25:26;5.70;99.90
20345;DHT22;10330;48.816;9.278;2024-01-06T02:27:54;5.70;99.90
20345;DHT22;10330;48.816;9.278;2024-01-06T02:30:20;5.80;99.90
20345;DHT22;10330;48.816;9.278;2024-01-06T02:32:47;5.80;99.90
20345;DHT22;10330;48.816;9.278;2024-01-06T02:35:13;5.80;99.90
20345;DHT22;10330;48.816;9.278;2024-01-06T02:37:40;5.70;99.90
20345;DHT22;10330;48.816;9.278;2024-01-06T02:40:08;5.80;99.90
20345;DHT22;10330;48.816;9.278;2024-01-06T02:42:35;5.80;99.90
20345;DHT22;10330;48.816;9.278;2024-01-06T02:45:01;5.80;99.90
20345;DHT22;10330;48.816;9.278;2024-01-06T02:47:27;5.80;99.90
20345;DHT22;10330;48.816;9.278;2024-01-06T02:49:54;5.80;99.90
20345;DHT22;10330;48.816;9.278;2024-01-06T02:52:20;5.80;99.90
20345;DHT22;10330;48.816;9.278;2024-01-06T02:54:46;5.80;99.90
20345;DHT22;10330;48.816;9.278;2024-01-06T02:57:12;5.90;99.90
20345;DHT22;10330;48.816;9.278;2024-01-06T02:59:39;5.80;99.90
20345;DHT22;10330;48.816;9.278;2024-01-06T03:02:07;5.80;99.90
20345;DHT22;10330;48.816;9.278;2024-01-06T03:04:33;5.80;99.90
20345;DHT22;10330;48.816;9.278;2024-01-06T03:06:59;5.70;99.90
20345;DHT22;10330;48.816;9.278;2024-01-06T03:09:26;5.80;99.90
20345;DHT22;10330;48.816;9.278;2024-01-06T03:11:52;5.70;99.90
20345;DHT22;10330;48.816;9.278;2024-01-06T03:14:19;5.70;99.90
20345;DHT22;10330;48.816;9.278;2024-01-06T03:16:45;5.60;99.90
20345;DHT22;10330;48.816;9.278;2024-01-06T03:19:12;5.70;99.90
20345;DHT22;10330;48.816;9.278;2024-01-06T03:21:38;5.60;99.90
20345;DHT22;10330;48.816;9.278;2024-01-06T03:24:07;5.60;99.90
20345;DHT22;10330;48.816;9.278;2024-01-06T03:26:35;5.60;99.90
20345;DHT22;10330;48.816;9.278;2024-01-06T03:29:01;5.60;99.90
20345;DHT22;10330;48.816;9.278;2024-01-06T03:31:30;5.60;99.90
20345;DHT22;10330;48.816;9.278;2024-01-06T03:33:56;5.50;99.90
20345;DHT22;10330;48.816;9.278;2024-01-06T03:36:23;5.50;99.90
20345;DHT22;10330;48.816;9.278;2024-01-06T03:38:50;5.50;99.90
20345;DHT22;10330;48.816;9.278;2024-01-06T03:41:17;5.50;99.90
20345;DHT22;10330;48.816;9.278;2024-01-06T03:43:43;5.50;99.90
20345;DHT22;10330;48.816;9.278;2024-01-06T03:46:10;5.50;99.90
20345;DHT22;10330;48.816;9.278;2024-01-06T03:48:37;5.50;99.90
20345;DHT22;10330;48.816;9.278;2024-01-06T03:51:04;5.50;99.90
20345;DHT22;10330;48.816;9.278;2024-01-06T03:53:30;5.40;99.90
20345;DHT22;10330;48.816;9.278;2024-01-06T03:55:56;5.50;99.90
20345;DHT22;10330;48.816;9.278;2024-01-06T03:58:23;5.50;99.90
20345;DHT22;10330;48.816;9.278;2024-01-06T04:00:50;5.50;99.90
20345;DHT22;10330;48.816;9.278;2024-01-06T04:03:17;5.50;99.90
20345;DHT22;10330;48.816;9.278;2024-01-06T04:05:44;5.50;99.90
20345;DHT22;10330;48.816;9.278;2024-01-06T04:08:11;5.50;99.90
20345;DHT22;10330;48.816;9.278;2024-01-06T04:10:47;5.50;99.90
20345;DHT22;10330;48.816;9.278;2024-01-06T04:13:15;5.50;99.90
20345;DHT22;10330;48.816;9.278;2024-01-06T04:15:42;5.50;99.90
20345;DHT22;10330;48.816;9.278;2024-01-06T04:18:08;5.50;99.90
20345;DHT22;10330;48.816;9.278;2024-01-06T04:20:36;5.50;99.90
20345;DHT22;10330;48.816;9.278;2024-01-06T04:23:02;5.50;99.90
20345;DHT22;10330;48.816;9.278;2024-01-06T04:25:29;5.50;99.90
20345;DHT22;10330;48.816;9.278;2024-01-06T04:27:56;5.50;99.90
20345;DHT22;10330;48.816;9.278;2024-01-06T04:30:23;5.50;99.90
20345;DHT22;10330;48.816;9.278;2024-01-06T04:32:51;5.50;99.90
20345;DHT22;10330;48.816;9.278;2024-01-06T04:35:17;5.50;99.90
20345;DHT22;10330;48.816;9.278;2024-01-06T04:37:43;5.50;99.90
20345;DHT22;10330;48.816;9.278;2024-01-06T04:40:10;5.50;99.90
20345;DHT22;10330;48.816;9.278;2024-01-06T04:42:37;5.50;99.90
20345;DHT22;10330;48.816;9.278;2024-01-06T04:45:04;5.50;99.90
20345;DHT22;10330;48.816;9.278;2024-01-06T04:47:30;5.50;99.90
20345;DHT22;10330;48.816;9.278;2024-01-06T04:49:57;5.50;99.90
20345;DHT22;10330;48.816;9.278;2024-01-06T04:52:24;5.50;99.90
20345;DHT22;10330;48.816;9.278;2024-01-06T04:54:50;5.50;99.90
20345;DHT22;10330;48.816;9.278;2024-01-06T04:57:17;5.40;99.90
20345;DHT22;10330;48.816;9.278;2024-01-06T04:59:45;5.40;99.90
20345;DHT22;10330;48.816;9.278;2024-01-06T05:02:12;5.40;99.90
20345;DHT22;10330;48.816;9.278;2024-01-06T05:04:39;5.40;99.90
20345;DHT22;10330;48.816;9.278;2024-01-06T05:07:05;5.40;99.90
20345;DHT22;10330;48.816;9.278;2024-01-06T05:09:32;5.40;99.90
20345;DHT22;10330;48.816;9.278;2024-01-06T05:11:58;5.40;99.90
20345;DHT22;10330;48.816;9.278;2024-01-06T05:14:25;5.40;99.90
20345;DHT22;10330;48.816;9.278;2024-01-06T05:16:51;5.40;99.90
20345;DHT22;10330;48.816;9.278;2024-01-06T05:19:18;5.40;99.90
20345;DHT22;10330;48.816;9.278;2024-01-06T05:21:49;5.30;99.90
20345;DHT22;10330;48.816;9.278;2024-01-06T05:24:17;5.30;99.90
20345;DHT22;10330;48.816;9.278;2024-01-06T05:26:46;5.30;99.90
20345;DHT22;10330;48.816;9.278;2024-01-06T05:29:14;5.30;99.90
20345;DHT22;10330;48.816;9.278;2024-01-06T05:31:40;5.30;99.90
20345;DHT22;10330;48.816;9.278;2024-01-06T05:34:08;5.30;99.90
20345;DHT22;10330;48.816;9.278;2024-01-06T05:36:35;5.30;99.90
20345;DHT22;10330;48.816;9.278;2024-01-06T05:39:01;5.30;99.90
20345;DHT22;10330;48.816;9.278;2024-01-06T05:41:28;5.30;99.90
20345;DHT22;10330;48.816;9.278;2024-01-06T05:43:54;5.40;99.90
20345;DHT22;10330;48.816;9.278;2024-01-06T05:46:22;5.30;99.90
20345;DHT22;10330;48.816;9.278;2024-01-06T05:48:49;5.30;99.90
20345;DHT22;10330;48.816;9.278;2024-01-06T05:51:15;5.30;99.90
20345;DHT22;10330;48.816;9.278;2024-01-06T05:53:42;5.30;99.90
20345;DHT22;10330;48.816;9.278;2024-01-06T05:56:08;5.30;99.90
20345;DHT22;10330;48.816;9.278;2024-01-06T05:58:35;5.30;99.90
20345;DHT22;10330;48.816;9.278;2024-01-06T06:01:02;5.30;99.90
20345;DHT22;10330;48.816;9.278;2024-01-06T06:03:28;5.30;99.90
20345;DHT22;10330;48.816;9.278;2024-01-06T06:05:54;5.30;99.90
20345;DHT22;10330;48.816;9.278;2024-01-06T06:08:22;5.30;99.90
20345;DHT22;10330;48.816;9.278;2024-01-06T06:10:48;5.30;99.90
20345;DHT22;10330;48.816;9.278;2024-01-06T06:13:30;5.30;99.90
20345;DHT22;10330;48.816;9.278;2024-01-06T06:15:56;5.30;99.90
20345;DHT22;10330;48.816;9.278;2024-01-06T06:18:23;5.30;99.90
20345;DHT22;10330;48.816;9.278;2024-01-06T06:20:50;5.30;99.90
20345;DHT22;10330;48.816;9.278;2024-01-06T06:23:16;5.30;99.90
20345;DHT22;10330;48.816;9.278;2024-01-06T06:25:42;5.30;99.90
20345;DHT22;10330;48.816;9.278;2024-01-06T06:28:09;5.30;99.90
20345;DHT22;10330;48.816;9.278;2024-01-06T06:30:35;5.30;99.90
20345;DHT22;10330;48.816;9.278;2024-01-06T06:33:04;5.30;99.90
20345;DHT22;10330;48.816;9.278;2024-01-06T06:35:30;5.30;99.90
20345;DHT22;10330;48.816;9.278;2024-01-06T06:37:57;5.20;99.90
20345;DHT22;10330;48.816;9.278;2024-01-06T06:40:25;5.20;99.90
20345;DHT22;10330;48.816;9.278;2024-01-06T06:42:52;5.30;99.90
20345;DHT22;10330;48.816;9.278;2024-01-06T06:45:19;5.30;99.90
20345;DHT22;10330;48.816;9.278;2024-01-06T06:47:49;5.30;99.90
20345;DHT22;10330;48.816;9.278;2024-01-06T06:50:17;5.30;99.90
20345;DHT22;10330;48.816;9.278;2024-01-06T06:52:45;5.30;99.90
20345;DHT22;10330;48.816;9.278;2024-01-06T06:55:12;5.30;99.90
20345;DHT22;10330;48.816;9.278;2024-01-06T06:57:42;5.30;99.90
20345;DHT22;10330;48.816;9.278;2024-01-06T07:00:08;5.30;99.90
20345;DHT22;10330;48.816;9.278;2024-01-06T07:02:35;5.30;99.90
20345;DHT22;10330;48.816;9.278;2024-01-06T07:05:02;5.30;99.90
20345;DHT22;10330;48.816;9.278;2024-01-06T07:07:28;5.30;99.90
20345;DHT22;10330;48.816;9.278;2024-01-06T07:09:55;5.30;99.90
20345;DHT22;10330;48.816;9.278;2024-01-06T07:12:22;5.30;99.90
20345;DHT22;10330;48.816;9.278;2024-01-06T07:14:48;5.40;99.90
20345;DHT22;10330;48.816;9.278;2024-01-06T07:17:14;5.40;99.90
20345;DHT22;10330;48.816;9.278;2024-01-06T07:19:42;5.40;99.90
20345;DHT22;10330;48.816;9.278;2024-01-06T07:22:09;5.30;99.90
20345;DHT22;10330;48.816;9.278;2024-01-06T07:24:35;5.30;99.90
20345;DHT22;10330;48.816;9.278;2024-01-06T07:27:02;5.30;99.90
20345;DHT22;10330;48.816;9.278;2024-01-06T07:29:32;5.40;99.90
20345;DHT22;10330;48.816;9.278;2024-01-06T07:31:58;5.40;99.90
20345;DHT22;10330;48.816;9.278;2024-01-06T07:34:25;5.40;99.90
20345;DHT22;10330;48.816;9.278;2024-01-06T07:36:51;5.40;99.90
20345;DHT22;10330;48.816;9.278;2024-01-06T07:39:17;5.40;99.90
20345;DHT22;10330;48.816;9.278;2024-01-06T07:41:44;5.40;99.90
20345;DHT22;10330;48.816;9.278;2024-01-06T07:44:12;5.40;99.90
20345;DHT22;10330;48.816;9.278;2024-01-06T07:46:39;5.40;99.90
20345;DHT22;10330;48.816;9.278;2024-01-06T07:49:06;5.40;99.90
20345;DHT22;10330;48.816;9.278;2024-01-06T07:51:33;5.40;99.90
20345;DHT22;10330;48.816;9.278;2024-01-06T07:54:01;5.40;99.90
20345;DHT22;10330;48.816;9.278;2024-01-06T07:56:27;5.40;99.90
20345;DHT22;10330;48.816;9.278;2024-01-06T07:58:53;5.40;99.90
20345;DHT22;10330;48.816;9.278;2024-01-06T08:01:20;5.40;99.90
20345;DHT22;10330;48.816;9.278;2024-01-06T08:03:46;5.40;99.90
20345;DHT22;10330;48.816;9.278;2024-01-06T08:06:12;5.50;99.90
20345;DHT22;10330;48.816;9.278;2024-01-06T08:08:39;5.50;99.90
20345;DHT22;10330;48.816;9.278;2024-01-06T08:11:05;5.50;99.90
20345;DHT22;10330;48.816;9.278;2024-01-06T08:13:31;5.50;99.90
20345;DHT22;10330;48.816;9.278;2024-01-06T08:15:58;5.50;99.90
20345;DHT22;10330;48.816;9.278;2024-01-06T08:18:25;5.50;99.90
20345;DHT22;10330;48.816;9.278;2024-01-06T08:20:51;5.60;99.90
20345;DHT22;10330;48.816;9.278;2024-01-06T08:23:20;5.60;99.90
20345;DHT22;10330;48.816;9.278;2024-01-06T08:25:46;5.60;99.90
20345;DHT22;10330;48.816;9.278;2024-01-06T08:28:13;5.60;99.90
20345;DHT22;10330;48.816;9.278;2024-01-06T08:30:46;5.60;99.90
20345;DHT22;10330;48.816;9.278;2024-01-06T08:33:12;5.60;99.90
20345;DHT22;10330;48.816;9.278;2024-01-06T08:35:38;5.70;99.90
20345;DHT22;10330;48.816;9.278;2024-01-06T08:38:07;5.70;99.90
20345;DHT22;10330;48.816;9.278;2024-01-06T08:40:34;5.70;99.90
20345;DHT22;10330;48.816;9.278;2024-01-06T08:43:01;5.70;99.90
20345;DHT22;10330;48.816;9.278;2024-01-06T08:45:28;5.70;99.90
20345;DHT22;10330;48.816;9.278;2024-01-06T08:47:56;5.80;99.90
20345;DHT22;10330;48.816;9.278;2024-01-06T08:50:23;5.70;99.90
20345;DHT22;10330;48.816;9.278;2024-01-06T08:52:51;5.80;99.90
20345;DHT22;10330;48.816;9.278;2024-01-06T08:55:17;5.80;99.90
20345;DHT22;10330;48.816;9.278;2024-01-06T08:57:43;5.90;99.90
20345;DHT22;10330;48.816;9.278;2024-01-06T09:00:12;5.90;99.90
20345;DHT22;10330;48.816;9.278;2024-01-06T09:02:39;6.00;99.90
20345;DHT22;10330;48.816;9.278;2024-01-06T09:05:06;6.00;99.90
20345;DHT22;10330;48.816;9.278;2024-01-06T09:07:32;6.00;99.90
20345;DHT22;10330;48.816;9.278;2024-01-06T09:09:58;6.00;99.90
20345;DHT22;10330;48.816;9.278;2024-01-06T09:12:25;6.00;99.90
20345;DHT22;10330;48.816;9.278;2024-01-06T09:14:53;6.10;99.90
20345;DHT22;10330;48.816;9.278;2024-01-06T09:17:19;6.10;99.90
20345;DHT22;10330;48.816;9.278;2024-01-06T09:19:46;6.10;99.90
20345;DHT22;10330;48.816;9.278;2024-01-06T09:22:13;6.00;99.90
20345;DHT22;10330;48.816;9.278;2024-01-06T09:24:40;6.00;99.90
20345;DHT22;10330;48.816;9.278;2024-01-06T09:27:07;6.10;99.90
20345;DHT22;10330;48.816;9.278;2024-01-06T09:29:33;6.00;99.90
20345;DHT22;10330;48.816;9.278;2024-01-06T09:31:59;6.00;99.90
20345;DHT22;10330;48.816;9.278;2024-01-06T09:34:25;6.00;99.90
20345;DHT22;10330;48.816;9.278;2024-01-06T09:36:51;5.80;99.90
20345;DHT22;10330;48.816;9.278;2024-01-06T09:39:18;5.90;99.90
20345;DHT22;10330;48.816;9.278;2024-01-06T09:41:44;5.90;99.90
20345;DHT22;10330;48.816;9.278;2024-01-06T09:44:10;5.90;99.90
20345;DHT22;10330;48.816;9.278;2024-01-06T09:46:37;6.10;99.90
20345;DHT22;10330;48.816;9.278;2024-01-06T09:49:07;6.10;99.90
20345;DHT22;10330;48.816;9.278;2024-01-06T09:51:36;6.20;99.90
20345;DHT22;10330;48.816;9.278;2024-01-06T09:54:08;6.20;99.90
20345;DHT22;10330;48.816;9.278;2024-01-06T09:56:36;6.20;99.90
20345;DHT22;10330;48.816;9.278;2024-01-06T09:59:03;6.20;99.90
20345;DHT22;10330;48.816;9.278;2024-01-06T10:01:30;6.30;99.90
20345;DHT22;10330;48.816;9.278;2024-01-06T10:03:56;6.00;99.90
20345;DHT22;10330;48.816;9.278;2024-01-06T10:06:22;6.00;99.90
20345;DHT22;10330;48.816;9.278;2024-01-06T10:08:50;6.00;99.90
20345;DHT22;10330;48.816;9.278;2024-01-06T10:11:19;6.10;99.90
20345;DHT22;10330;48.816;9.278;2024-01-06T10:13:49;6.30;99.90
20345;DHT22;10330;48.816;9.278;2024-01-06T10:16:15;6.40;99.90
20345;DHT22;10330;48.816;9.278;2024-01-06T10:18:42;6.40;99.90
20345;DHT22;10330;48.816;9.278;2024-01-06T10:21:09;6.40;99.90
20345;DHT22;10330;48.816;9.278;2024-01-06T10:23:36;6.30;99.90
20345;DHT22;10330;48.816;9.278;2024-01-06T10:26:03;6.30;99.90
20345;DHT22;10330;48.816;9.278;2024-01-06T10:28:29;6.20;99.90
20345;DHT22;10330;48.816;9.278;2024-01-06T10:30:56;6.10;99.90
20345;DHT22;10330;48.816;9.278;2024-01-06T10:33:25;6.20;99.90
20345;DHT22;10330;48.816;9.278;2024-01-06T10:35:52;6.20;99.90
20345;DHT22;10330;48.816;9.278;2024-01-06T10:38:21;6.10;99.90
20345;DHT22;10330;48.816;9.278;2024-01-06T10:41:02;6.10;99.90
20345;DHT22;10330;48.816;9.278;2024-01-06T10:43:39;6.10;99.90
20345;DHT22;10330;48.816;9.278;2024-01-06T10:46:09;6.10;99.90
20345;DHT22;10330;48.816;9.278;2024-01-06T10:48:38;6.00;99.90
20345;DHT22;10330;48.816;9.278;2024-01-06T10:51:04;6.00;99.90
20345;DHT22;10330;48.816;9.278;2024-01-06T10:53:34;5.90;99.90
20345;DHT22;10330;48.816;9.278;2024-01-06T10:56:09;5.90;99.90
20345;DHT22;10330;48.816;9.278;2024-01-06T10:58:36;6.00;99.90
20345;DHT22;10330;48.816;9.278;2024-01-06T11:01:09;6.10;99.90
20345;DHT22;10330;48.816;9.278;2024-01-06T11:03:37;6.00;99.90
20345;DHT22;10330;48.816;9.278;2024-01-06T11:06:05;6.10;99.90
20345;DHT22;10330;48.816;9.278;2024-01-06T11:08:33;6.10;99.90
20345;DHT22;10330;48.816;9.278;2024-01-06T11:11:03;6.10;99.90
20345;DHT22;10330;48.816;9.278;2024-01-06T11:13:30;6.10;99.90
20345;DHT22;10330;48.816;9.278;2024-01-06T11:15:56;6.00;99.90
20345;DHT22;10330;48.816;9.278;2024-01-06T11:18:32;5.90;99.90
20345;DHT22;10330;48.816;9.278;2024-01-06T11:21:22;6.00;99.90
20345;DHT22;10330;48.816;9.278;2024-01-06T11:26:32;6.00;99.90
20345;DHT22;10330;48.816;9.278;2024-01-06T11:29:00;6.00;99.90
20345;DHT22;10330;48.816;9.278;2024-01-06T11:31:32;6.00;99.90
20345;DHT22;10330;48.816;9.278;2024-01-06T11:34:17;6.00;99.90
20345;DHT22;10330;48.816;9.278;2024-01-06T11:36:47;5.90;99.90
20345;DHT22;10330;48.816;9.278;2024-01-06T11:39:36;5.90;99.90
20345;DHT22;10330;48.816;9.278;2024-01-06T11:42:04;6.00;99.90
20345;DHT22;10330;48.816;9.278;2024-01-06T11:44:34;6.00;99.90
20345;DHT22;10330;48.816;9.278;2024-01-06T11:47:00;6.10;99.90
20345;DHT22;10330;48.816;9.278;2024-01-06T11:49:29;6.10;99.90
20345;DHT22;10330;48.816;9.278;2024-01-06T11:51:56;6.10;99.90
20345;DHT22;10330;48.816;9.278;2024-01-06T11:54:23;6.10;99.90
20345;DHT22;10330;48.816;9.278;2024-01-06T11:56:49;6.10;99.90
20345;DHT22;10330;48.816;9.278;2024-01-06T11:59:16;5.90;99.90
20345;DHT22;10330;48.816;9.278;2024-01-06T12:01:42;5.90;99.90
20345;DHT22;10330;48.816;9.278;2024-01-06T12:04:14;5.80;99.90
20345;DHT22;10330;48.816;9.278;2024-01-06T12:06:41;5.80;99.90
20345;DHT22;10330;48.816;9.278;2024-01-06T12:09:10;5.80;99.90
20345;DHT22;10330;48.816;9.278;2024-01-06T12:11:41;5.70;99.90
20345;DHT22;10330;48.816;9.278;2024-01-06T12:14:07;5.80;99.90
20345;DHT22;10330;48.816;9.278;2024-01-06T12:16:34;5.90;99.90
20345;DHT22;10330;48.816;9.278;2024-01-06T12:19:01;6.00;99.90
20345;DHT22;10330;48.816;9.278;2024-01-06T12:21:28;6.00;99.90
20345;DHT22;10330;48.816;9.278;2024-01-06T12:23:54;6.00;99.90
20345;DHT22;10330;48.816;9.278;2024-01-06T12:26:37;6.00;99.90
20345;DHT22;10330;48.816;9.278;2024-01-06T12:29:04;6.10;99.90
20345;DHT22;10330;48.816;9.278;2024-01-06T12:31:30;6.00;99.90
20345;DHT22;10330;48.816;9.278;2024-01-06T12:33:57;5.90;99.90
20345;DHT22;10330;48.816;9.278;2024-01-06T12:36:24;5.90;99.90
20345;DHT22;10330;48.816;9.278;2024-01-06T12:38:51;5.80;99.90
20345;DHT22;10330;48.816;9.278;2024-01-06T12:41:27;5.80;99.90
20345;DHT22;10330;48.816;9.278;2024-01-06T12:44:03;5.80;99.90
20345;DHT22;10330;48.816;9.278;2024-01-06T12:46:29;5.90;99.90
20345;DHT22;10330;48.816;9.278;2024-01-06T12:48:56;5.80;99.90
20345;DHT22;10330;48.816;9.278;2024-01-06T12:51:22;5.80;99.90
20345;DHT22;10330;48.816;9.278;2024-01-06T12:53:48;5.90;99.90
20345;DHT22;10330;48.816;9.278;2024-01-06T12:56:15;5.90;99.90
20345;DHT22;10330;48.816;9.278;2024-01-06T12:58:41;6.00;99.90
20345;DHT22;10330;48.816;9.278;2024-01-06T13:01:10;5.90;99.90
20345;DHT22;10330;48.816;9.278;2024-01-06T13:03:37;5.90;99.90
20345;DHT22;10330;48.816;9.278;2024-01-06T13:06:03;6.00;99.90
20345;DHT22;10330;48.816;9.278;2024-01-06T13:08:30;5.90;99.90
20345;DHT22;10330;48.816;9.278;2024-01-06T13:10:56;5.90;99.90
20345;DHT22;10330;48.816;9.278;2024-01-06T13:13:22;5.90;99.90
20345;DHT22;10330;48.816;9.278;2024-01-06T13:15:49;5.90;99.90
20345;DHT22;10330;48.816;9.278;2024-01-06T13:18:15;5.90;99.90
20345;DHT22;10330;48.816;9.278;2024-01-06T13:20:43;5.90;99.90
20345;DHT22;10330;48.816;9.278;2024-01-06T13:23:09;5.90;99.90
20345;DHT22;10330;48.816;9.278;2024-01-06T13:25:37;5.90;99.90
20345;DHT22;10330;48.816;9.278;2024-01-06T13:28:07;5.80;99.90
20345;DHT22;10330;48.816;9.278;2024-01-06T13:30:34;5.70;99.90
20345;DHT22;10330;48.816;9.278;2024-01-06T13:33:00;5.80;99.90
20345;DHT22;10330;48.816;9.278;2024-01-06T13:35:26;5.80;99.90
20345;DHT22;10330;48.816;9.278;2024-01-06T13:37:53;5.70;99.90
20345;DHT22;10330;48.816;9.278;2024-01-06T13:40:19;5.60;99.90
20345;DHT22;10330;48.816;9.278;2024-01-06T13:42:53;5.60;99.90
20345;DHT22;10330;48.816;9.278;2024-01-06T13:45:20;5.60;99.90
20345;DHT22;10330;48.816;9.278;2024-01-06T13:47:47;5.60;99.90
20345;DHT22;10330;48.816;9.278;2024-01-06T13:50:17;5.70;99.90
20345;DHT22;10330;48.816;9.278;2024-01-06T13:52:44;5.70;99.90
20345;DHT22;10330;48.816;9.278;2024-01-06T13:55:11;5.70;99.90
20345;DHT22;10330;48.816;9.278;2024-01-06T13:57:38;5.80;99.90
20345;DHT22;10330;48.816;9.278;2024-01-06T14:00:10;5.60;99.90
20345;DHT22;10330;48.816;9.278;2024-01-06T14:02:41;5.60;99.90
20345;DHT22;10330;48.816;9.278;2024-01-06T14:05:07;5.60;99.90
20345;DHT22;10330;48.816;9.278;2024-01-06T14:07:37;5.50;99.90
20345;DHT22;10330;48.816;9.278;2024-01-06T14:10:05;5.60;99.90
20345;DHT22;10330;48.816;9.278;2024-01-06T14:12:32;5.60;99.90
20345;DHT22;10330;48.816;9.278;2024-01-06T14:14:58;5.50;99.90
20345;DHT22;10330;48.816;9.278;2024-01-06T14:17:24;5.50;99.90
20345;DHT22;10330;48.816;9.278;2024-01-06T14:19:51;5.40;99.90
20345;DHT22;10330;48.816;9.278;2024-01-06T14:22:18;5.50;99.90
20345;DHT22;10330;48.816;9.278;2024-01-06T14:24:46;5.60;99.90
20345;DHT22;10330;48.816;9.278;2024-01-06T14:27:13;5.50;99.90
20345;DHT22;10330;48.816;9.278;2024-01-06T14:29:39;5.50;99.90
20345;DHT22;10330;48.816;9.278;2024-01-06T14:32:06;5.50;99.90
20345;DHT22;10330;48.816;9.278;2024-01-06T14:34:32;5.50;99.90
20345;DHT22;10330;48.816;9.278;2024-01-06T14:36:59;5.50;99.90
20345;DHT22;10330;48.816;9.278;2024-01-06T14:39:25;5.50;99.90
20345;DHT22;10330;48.816;9.278;2024-01-06T14:41:52;5.50;99.90
20345;DHT22;10330;48.816;9.278;2024-01-06T14:44:18;5.50;99.90
20345;DHT22;10330;48.816;9.278;2024-01-06T14:46:50;5.50;99.90
20345;DHT22;10330;48.816;9.278;2024-01-06T14:49:17;5.60;99.90
20345;DHT22;10330;48.816;9.278;2024-01-06T14:51:43;5.50;99.90
20345;DHT22;10330;48.816;9.278;2024-01-06T14:54:11;5.50;99.90
20345;DHT22;10330;48.816;9.278;2024-01-06T14:56:38;5.50;99.90
20345;DHT22;10330;48.816;9.278;2024-01-06T14:59:04;5.40;99.90
20345;DHT22;10330;48.816;9.278;2024-01-06T15:01:32;5.40;99.90
20345;DHT22;10330;48.816;9.278;2024-01-06T15:03:58;5.30;99.90
20345;DHT22;10330;48.816;9.278;2024-01-06T15:06:25;5.30;99.90
20345;DHT22;10330;48.816;9.278;2024-01-06T15:08:51;5.40;99.90
20345;DHT22;10330;48.816;9.278;2024-01-06T15:11:18;5.40;99.90
20345;DHT22;10330;48.816;9.278;2024-01-06T15:13:44;5.50;99.90
20345;DHT22;10330;48.816;9.278;2024-01-06T15:16:12;5.50;99.90
20345;DHT22;10330;48.816;9.278;2024-01-06T15:18:39;5.50;99.90
20345;DHT22;10330;48.816;9.278;2024-01-06T15:21:05;5.50;99.90
20345;DHT22;10330;48.816;9.278;2024-01-06T15:23:31;5.50;99.90
20345;DHT22;10330;48.816;9.278;2024-01-06T15:25:58;5.50;99.90
20345;DHT22;10330;48.816;9.278;2024-01-06T15:28:25;5.50;99.90
20345;DHT22;10330;48.816;9.278;2024-01-06T15:30:53;5.50;99.90
20345;DHT22;10330;48.816;9.278;2024-01-06T15:33:19;5.50;99.90
20345;DHT22;10330;48.816;9.278;2024-01-06T15:35:45;5.60;99.90
20345;DHT22;10330;48.816;9.278;2024-01-06T15:38:11;5.60;99.90
20345;DHT22;10330;48.816;9.278;2024-01-06T15:40:38;5.60;99.90
20345;DHT22;10330;48.816;9.278;2024-01-06T15:43:04;5.60;99.90
20345;DHT22;10330;48.816;9.278;2024-01-06T15:45:30;5.60;99.90
20345;DHT22;10330;48.816;9.278;2024-01-06T15:47:56;5.50;99.90